createdAt,value
2019-02-14T00:01:15.116Z,18.53
2019-02-14T00:03:45.645Z,18.27
2019-02-14T00:06:16.121Z,19.43
2019-02-14T00:08:46.601Z,19.90
2019-02-14T00:11:17.080Z,18.93
2019-02-14T00:13:47.558Z,19.63
2019-02-14T00:16:18.027Z,16.93
2019-02-14T00:18:48.542Z,19.17
2019-02-14T00:21:19.058Z,18.13
2019-02-14T00:23:49.469Z,17.63
2019-02-14T00:26:19.998Z,16.33
2019-02-14T00:28:50.435Z,18.23
2019-02-14T00:31:20.946Z,17.10
2019-02-14T00:33:51.438Z,17.60
2019-02-14T00:36:21.955Z,17.47
2019-02-14T00:38:52.555Z,19.30
2019-02-14T00:41:22.970Z,20.20
2019-02-14T00:43:53.399Z,19.57
2019-02-14T00:46:23.956Z,19.87
2019-02-14T00:48:54.559Z,19.43
2019-02-14T00:51:25.088Z,18.23
2019-02-14T00:53:55.515Z,17.77
2019-02-14T00:56:26.146Z,17.40
2019-02-14T00:58:56.582Z,17.77
2019-02-14T01:01:27.206Z,16.63
2019-02-14T01:03:57.666Z,16.73
2019-02-14T01:06:28.240Z,16.47
2019-02-14T01:08:58.794Z,18.17
2019-02-14T01:11:29.224Z,16.40
2019-02-14T01:14:00.673Z,15.30
2019-02-14T01:16:31.119Z,15.83
2019-02-14T01:19:01.588Z,16.00
2019-02-14T01:21:32.129Z,17.10
2019-02-14T01:24:02.591Z,14.37
2019-02-14T01:26:33.114Z,15.10
2019-02-14T01:29:03.644Z,15.43
2019-02-14T01:31:34.173Z,15.00
2019-02-14T01:34:04.836Z,15.73
2019-02-14T01:36:35.486Z,12.40
2019-02-14T01:39:06.682Z,14.60
2019-02-14T01:41:37.159Z,15.70
2019-02-14T01:44:07.643Z,15.03
2019-02-14T01:46:38.374Z,15.53
2019-02-14T01:49:08.865Z,16.73
2019-02-14T01:51:39.379Z,16.80
2019-02-14T01:54:09.883Z,15.90
2019-02-14T01:56:40.598Z,14.80
2019-02-14T01:59:11.227Z,16.00
2019-02-14T02:01:41.654Z,14.67
2019-02-14T02:04:12.084Z,14.53
2019-02-14T02:06:42.506Z,13.73
2019-02-14T02:09:12.932Z,13.50
2019-02-14T02:11:43.787Z,14.73
2019-02-14T02:14:14.210Z,14.30
2019-02-14T02:16:44.666Z,14.70
2019-02-14T02:19:15.332Z,15.47
2019-02-14T02:21:45.831Z,15.43
2019-02-14T02:24:16.314Z,14.37
2019-02-14T02:26:46.746Z,13.60
2019-02-14T02:29:17.234Z,15.57
2019-02-14T02:31:47.856Z,13.97
2019-02-14T02:34:18.328Z,14.40
2019-02-14T02:36:48.806Z,14.13
2019-02-14T02:39:19.337Z,14.03
2019-02-14T02:41:49.922Z,14.47
2019-02-14T02:44:20.348Z,14.93
2019-02-14T02:46:50.773Z,13.53
2019-02-14T02:49:21.198Z,14.07
2019-02-14T02:51:51.728Z,13.87
2019-02-14T02:54:22.263Z,14.53
2019-02-14T02:56:52.891Z,14.70
2019-02-14T02:59:23.521Z,14.13
2019-02-14T03:01:53.953Z,14.80
2019-02-14T03:04:25.400Z,14.93
2019-02-14T03:06:55.827Z,14.80
2019-02-14T03:09:26.253Z,13.33
2019-02-14T03:11:56.679Z,12.87
2019-02-14T03:14:28.437Z,13.37
2019-02-14T03:16:58.872Z,13.40
2019-02-14T03:19:29.291Z,16.57
2019-02-14T03:21:59.719Z,15.13
2019-02-14T03:24:31.215Z,17.50
2019-02-14T03:27:01.699Z,16.57
2019-02-14T03:29:32.435Z,16.60
2019-02-14T03:32:02.884Z,16.87
2019-02-14T03:34:33.287Z,15.57
2019-02-14T03:37:03.759Z,15.40
2019-02-14T03:39:34.296Z,15.77
2019-02-14T03:42:04.773Z,14.20
2019-02-14T03:44:35.406Z,16.63
2019-02-14T03:47:05.842Z,14.90
2019-02-14T03:49:36.259Z,16.47
2019-02-14T03:52:06.780Z,15.50
2019-02-14T03:54:37.266Z,15.07
2019-02-14T03:57:07.744Z,13.67
2019-02-14T03:59:38.220Z,15.50
2019-02-14T04:02:08.701Z,14.73
2019-02-14T04:04:39.127Z,15.03
2019-02-14T04:07:09.555Z,15.20
2019-02-14T04:09:39.981Z,17.27
2019-02-14T04:12:10.538Z,18.03
2019-02-14T04:14:40.976Z,19.60
2019-02-14T04:17:11.539Z,20.10
2019-02-14T04:19:41.999Z,18.80
2019-02-14T04:22:12.423Z,21.47
2019-02-14T04:24:42.851Z,20.03
2019-02-14T04:27:13.359Z,21.83
2019-02-14T04:29:43.812Z,19.37
2019-02-14T04:32:15.263Z,19.97
2019-02-14T04:34:45.864Z,19.93
2019-02-14T04:37:16.323Z,19.90
2019-02-14T04:39:46.787Z,22.27
2019-02-14T04:42:17.461Z,23.57
2019-02-14T04:44:47.916Z,23.53
2019-02-14T04:47:18.334Z,23.70
2019-02-14T04:49:48.768Z,22.10
2019-02-14T04:52:19.296Z,22.27
2019-02-14T04:54:49.753Z,20.63
2019-02-14T04:57:20.679Z,21.00
2019-02-14T04:59:51.188Z,20.73
2019-02-14T05:02:21.615Z,20.97
2019-02-14T05:04:52.043Z,20.33
2019-02-14T05:07:22.465Z,21.80
2019-02-14T05:09:52.894Z,20.87
2019-02-14T05:12:26.168Z,20.27
2019-02-14T05:14:56.727Z,19.60
2019-02-14T05:17:27.147Z,21.83
2019-02-14T05:19:57.576Z,20.80
2019-02-14T05:22:28.100Z,20.70
2019-02-14T05:24:58.833Z,20.60
2019-02-14T05:27:29.282Z,19.37
2019-02-14T05:29:59.746Z,20.53
2019-02-14T05:32:30.319Z,19.03
2019-02-14T05:35:00.771Z,18.27
2019-02-14T05:37:31.483Z,20.03
2019-02-14T05:40:01.876Z,19.77
2019-02-14T05:42:32.491Z,18.40
2019-02-14T05:45:02.965Z,19.20
2019-02-14T05:47:33.394Z,21.63
2019-02-14T05:50:03.822Z,19.50
2019-02-14T05:52:34.247Z,19.40
2019-02-14T05:55:04.950Z,19.63
2019-02-14T05:57:35.722Z,22.17
2019-02-14T06:00:06.808Z,18.07
2019-02-14T06:02:37.606Z,19.97
2019-02-14T06:05:08.225Z,17.83
2019-02-14T06:07:38.735Z,18.83
2019-02-14T06:10:09.510Z,18.53
2019-02-14T06:12:40.018Z,20.57
2019-02-14T06:15:10.957Z,18.37
2019-02-14T06:17:41.386Z,19.23
2019-02-14T06:20:12.020Z,19.00
2019-02-14T06:22:42.549Z,18.20
2019-02-14T06:25:13.135Z,20.73
2019-02-14T06:27:43.810Z,17.50
2019-02-14T06:30:14.747Z,19.17
2019-02-14T06:32:46.201Z,23.40
2019-02-14T06:35:16.674Z,21.53
2019-02-14T06:37:47.156Z,25.47
2019-02-14T06:40:17.633Z,25.40
2019-02-14T06:42:48.258Z,28.30
2019-02-14T06:45:18.647Z,27.77
2019-02-14T06:47:49.067Z,28.33
2019-02-14T06:50:19.495Z,31.80
2019-02-14T06:52:50.947Z,30.40
2019-02-14T06:55:21.378Z,30.97
2019-02-14T06:57:52.004Z,32.70
2019-02-14T07:00:22.430Z,31.57
2019-02-14T07:02:52.867Z,22.30
2019-02-14T07:05:23.438Z,25.83
2019-02-14T07:07:53.858Z,21.33
2019-02-14T07:10:24.480Z,19.77
2019-02-14T07:12:55.046Z,23.67
2019-02-14T07:15:25.567Z,26.63
2019-02-14T07:17:56.051Z,26.33
2019-02-14T07:20:26.469Z,27.83
2019-02-14T07:22:57.046Z,25.80
2019-02-14T07:25:27.630Z,24.90
2019-02-14T07:27:58.066Z,26.80
2019-02-14T07:30:28.627Z,25.00
2019-02-14T07:32:59.119Z,27.33
2019-02-14T07:35:29.638Z,25.93
2019-02-14T07:38:00.362Z,27.63
2019-02-14T07:40:30.844Z,26.70
2019-02-14T07:43:01.475Z,31.33
2019-02-14T07:45:32.015Z,35.50
2019-02-14T07:48:02.490Z,40.10
2019-02-14T07:50:33.122Z,42.13
2019-02-14T07:53:03.583Z,41.33
2019-02-14T07:55:34.150Z,30.23
2019-02-14T07:58:04.811Z,27.10
2019-02-14T08:00:35.341Z,21.17
2019-02-14T08:03:05.878Z,21.07
2019-02-14T08:05:36.266Z,18.57
2019-02-14T08:08:06.779Z,17.17
2019-02-14T08:10:37.331Z,18.83
2019-02-14T08:13:07.809Z,17.33
2019-02-14T08:15:38.209Z,16.73
2019-02-14T08:18:10.175Z,17.43
2019-02-14T08:20:40.670Z,17.77
2019-02-14T08:23:11.141Z,17.00
2019-02-14T08:25:41.557Z,17.47
2019-02-14T08:28:11.983Z,17.17
2019-02-14T08:30:42.410Z,17.27
2019-02-14T08:33:12.842Z,17.33
2019-02-14T08:35:43.266Z,17.00
2019-02-14T08:38:13.696Z,15.70
2019-02-14T08:40:44.171Z,17.30
2019-02-14T08:43:14.691Z,15.63
2019-02-14T08:45:45.179Z,15.13
2019-02-14T08:48:15.677Z,16.83
2019-02-14T08:50:46.174Z,15.93
2019-02-14T08:53:16.664Z,16.37
2019-02-14T08:55:47.194Z,15.30
2019-02-14T08:58:17.927Z,14.90
2019-02-14T09:00:48.359Z,15.07
2019-02-14T09:03:19.881Z,15.23
2019-02-14T09:05:50.437Z,14.23
2019-02-14T09:08:20.864Z,15.00
2019-02-14T09:10:51.340Z,13.87
2019-02-14T09:13:21.819Z,15.13
2019-02-14T09:15:52.248Z,13.67
2019-02-14T09:18:22.880Z,14.37
2019-02-14T09:20:53.313Z,15.10
2019-02-14T09:23:24.762Z,14.20
2019-02-14T09:25:55.188Z,12.77
2019-02-14T09:28:25.611Z,13.00
2019-02-14T09:30:56.040Z,14.13
2019-02-14T09:33:27.796Z,13.80
2019-02-14T09:35:58.363Z,13.07
2019-02-14T09:38:28.957Z,13.73
2019-02-14T09:40:59.427Z,13.33
2019-02-14T09:43:30.255Z,14.13
2019-02-14T09:46:00.765Z,14.47
2019-02-14T09:48:31.366Z,14.53
2019-02-14T09:51:01.863Z,15.03
2019-02-14T09:53:32.421Z,15.48
2019-02-14T09:56:02.872Z,14.83
2019-02-14T09:58:33.498Z,15.05
2019-02-14T10:01:04.043Z,15.60
2019-02-14T10:03:34.589Z,14.68
2019-02-14T10:06:05.117Z,14.47
2019-02-14T10:08:35.519Z,14.00
2019-02-14T10:11:05.945Z,12.85
2019-02-14T10:13:37.548Z,11.60
2019-02-14T10:16:08.023Z,12.43
2019-02-14T10:18:38.659Z,10.03
2019-02-14T10:21:08.996Z,10.20
2019-02-14T10:23:39.509Z,9.65
2019-02-14T10:26:10.047Z,9.70
2019-02-14T10:28:40.470Z,11.00
2019-02-14T10:31:10.895Z,11.50
2019-02-14T10:33:41.436Z,10.60
2019-02-14T10:36:11.864Z,10.80
2019-02-14T10:38:42.483Z,10.78
2019-02-14T10:41:13.102Z,10.20
2019-02-14T10:43:48.798Z,11.15
2019-02-14T10:46:15.711Z,10.78
2019-02-14T10:48:46.442Z,10.85
2019-02-14T10:51:17.002Z,11.55
2019-02-14T10:53:47.811Z,11.05
2019-02-14T10:56:18.242Z,10.68
2019-02-14T10:58:48.867Z,10.68
2019-02-14T11:01:19.320Z,10.88
2019-02-14T11:03:49.926Z,11.03
2019-02-14T11:06:20.360Z,10.93
2019-02-14T11:08:50.777Z,10.80
2019-02-14T11:11:21.206Z,10.25
2019-02-14T11:13:52.656Z,10.58
2019-02-14T11:16:23.137Z,10.53
2019-02-14T11:18:53.639Z,9.45
2019-02-14T11:21:24.151Z,9.75
2019-02-14T11:23:54.742Z,9.70
2019-02-14T11:26:25.210Z,9.30
2019-02-14T11:28:56.978Z,9.70
2019-02-14T11:31:27.395Z,10.65
2019-02-14T11:33:58.027Z,10.38
2019-02-14T11:36:28.490Z,9.58
2019-02-14T11:38:58.974Z,10.45
2019-02-14T11:41:29.448Z,9.25
2019-02-14T11:44:00.240Z,10.70
2019-02-14T11:46:30.973Z,10.50
2019-02-14T11:49:01.573Z,11.25
2019-02-14T11:51:32.070Z,11.00
2019-02-14T11:54:02.733Z,8.78
2019-02-14T11:56:33.200Z,7.65
2019-02-14T11:59:03.824Z,6.05
2019-02-14T12:01:34.255Z,6.55
2019-02-14T12:04:04.746Z,6.50
2019-02-14T12:06:35.309Z,6.12
2019-02-14T12:09:07.558Z,9.15
2019-02-14T12:11:38.007Z,12.40
2019-02-14T12:14:09.459Z,8.50
2019-02-14T12:16:39.884Z,11.28
2019-02-14T12:19:10.361Z,8.20
2019-02-14T12:21:40.783Z,7.22
2019-02-14T12:24:11.275Z,7.58
2019-02-14T12:26:41.696Z,5.78
2019-02-14T12:29:12.126Z,5.83
2019-02-14T12:31:42.554Z,5.78
2019-02-14T12:34:12.977Z,5.80
2019-02-14T12:36:43.443Z,5.83
2019-02-14T12:39:14.004Z,6.28
2019-02-14T12:41:44.512Z,6.40
2019-02-14T12:44:15.103Z,6.17
2019-02-14T12:46:45.523Z,5.42
2019-02-14T12:49:16.357Z,6.35
2019-02-14T12:51:46.816Z,5.75
2019-02-14T12:54:17.315Z,6.12
2019-02-14T12:56:50.814Z,6.40
2019-02-14T12:59:21.450Z,6.12
2019-02-14T13:01:51.871Z,5.87
2019-02-14T13:04:23.320Z,5.45
2019-02-14T13:06:53.851Z,6.50
2019-02-14T13:09:24.408Z,6.40
2019-02-14T13:11:55.013Z,6.67
2019-02-14T13:14:25.441Z,6.05
2019-02-14T13:16:55.868Z,6.37
2019-02-14T13:19:26.294Z,5.87
2019-02-14T13:21:57.028Z,6.35
2019-02-14T13:24:27.497Z,6.10
2019-02-14T13:26:58.055Z,6.28
2019-02-14T13:29:28.514Z,5.70
2019-02-14T13:31:58.940Z,6.62
2019-02-14T13:34:29.370Z,6.03
2019-02-14T13:37:02.102Z,5.85
2019-02-14T13:39:32.689Z,6.12
2019-02-14T13:42:03.397Z,6.55
2019-02-14T13:44:33.916Z,6.10
2019-02-14T13:47:04.369Z,5.95
2019-02-14T13:49:34.795Z,5.85
2019-02-14T13:52:05.329Z,6.35
2019-02-14T13:54:35.720Z,7.12
2019-02-14T13:57:06.492Z,6.42
2019-02-14T13:59:36.915Z,7.22
2019-02-14T14:02:07.446Z,6.25
2019-02-14T14:04:37.859Z,6.25
2019-02-14T14:07:08.363Z,6.22
2019-02-14T14:09:39.074Z,6.47
2019-02-14T14:12:09.554Z,6.80
2019-02-14T14:14:39.980Z,7.00
2019-02-14T14:17:10.423Z,6.55
2019-02-14T14:19:40.919Z,6.60
2019-02-14T14:22:11.473Z,6.80
2019-02-14T14:24:42.002Z,6.97
2019-02-14T14:27:12.460Z,6.62
2019-02-14T14:29:42.958Z,6.15
2019-02-14T14:32:13.696Z,6.17
2019-02-14T14:34:44.214Z,5.85
2019-02-14T14:37:14.658Z,5.80
2019-02-14T14:39:47.714Z,6.15
2019-02-14T14:42:52.382Z,6.37
2019-02-14T14:45:35.799Z,6.15
2019-02-14T14:48:06.226Z,5.80
2019-02-14T14:50:36.655Z,5.85
2019-02-14T14:53:08.132Z,6.60
2019-02-14T14:55:38.793Z,6.00
2019-02-14T14:58:09.272Z,6.35
2019-02-14T15:00:40.000Z,6.53
2019-02-14T15:03:11.456Z,5.95
2019-02-14T15:05:41.980Z,5.72
2019-02-14T15:08:12.515Z,5.90
2019-02-14T15:10:43.022Z,5.90
2019-02-14T15:13:13.466Z,5.58
2019-02-14T15:15:44.098Z,6.22
2019-02-14T15:18:14.729Z,5.95
2019-02-14T15:20:45.223Z,6.17
2019-02-14T15:23:15.738Z,6.45
2019-02-14T15:25:46.215Z,5.95
2019-02-14T15:28:16.721Z,6.08
2019-02-14T15:30:47.173Z,6.53
2019-02-14T15:33:17.598Z,6.78
2019-02-14T15:35:48.027Z,6.08
2019-02-14T15:38:18.481Z,6.75
2019-02-14T15:40:48.879Z,5.97
2019-02-14T15:43:19.307Z,6.37
2019-02-14T15:45:49.774Z,6.33
2019-02-14T15:48:20.293Z,6.60
2019-02-14T15:50:51.473Z,6.70
2019-02-14T15:53:23.887Z,6.40
2019-02-14T15:55:54.315Z,7.20
2019-02-14T15:58:25.109Z,7.22
2019-02-14T16:00:55.699Z,7.15
2019-02-14T16:03:26.481Z,7.35
2019-02-14T16:05:56.938Z,7.33
2019-02-14T16:08:27.389Z,7.80
2019-02-14T16:10:57.782Z,7.60
2019-02-14T16:13:29.201Z,6.97
2019-02-14T16:16:00.590Z,7.22
2019-02-14T16:18:31.500Z,7.80
2019-02-14T16:21:03.530Z,8.13
2019-02-14T16:23:34.339Z,7.70
2019-02-14T16:26:04.867Z,7.22
2019-02-14T16:28:36.136Z,8.30
2019-02-14T16:31:07.461Z,8.25
2019-02-14T16:33:38.947Z,8.15
2019-02-14T16:36:09.539Z,7.78
2019-02-14T16:38:39.967Z,8.25
2019-02-14T16:41:10.288Z,8.80
2019-02-14T16:43:40.682Z,9.90
2019-02-14T16:46:11.221Z,10.07
2019-02-14T16:48:41.670Z,10.83
2019-02-14T16:51:12.098Z,11.00
2019-02-14T16:53:42.630Z,10.70
2019-02-14T16:56:13.360Z,11.83
2019-02-14T16:58:43.912Z,10.97
2019-02-14T17:01:14.318Z,11.93
2019-02-14T17:03:44.999Z,12.30
2019-02-14T17:06:15.403Z,15.07
2019-02-14T17:08:45.807Z,12.77
2019-02-14T17:11:16.486Z,19.93
2019-02-14T17:13:46.968Z,12.53
2019-02-14T17:16:17.391Z,11.50
2019-02-14T17:18:47.818Z,11.57
2019-02-14T17:21:18.315Z,11.03
2019-02-14T17:23:48.951Z,10.87
2019-02-14T17:26:19.421Z,10.90
2019-02-14T17:28:50.040Z,10.20
2019-02-14T17:31:20.470Z,11.17
2019-02-14T17:33:51.927Z,11.57
2019-02-14T17:36:22.430Z,11.80
2019-02-14T17:38:52.802Z,11.33
2019-02-14T17:41:23.229Z,11.83
2019-02-14T17:43:53.740Z,12.30
2019-02-14T17:46:24.198Z,11.47
2019-02-14T17:48:54.736Z,11.17
2019-02-14T17:51:25.215Z,12.33
2019-02-14T17:53:57.223Z,11.77
2019-02-14T17:56:27.751Z,11.10
2019-02-14T17:58:58.272Z,12.27
2019-02-14T18:01:28.762Z,13.23
2019-02-14T18:03:59.400Z,14.57
2019-02-14T18:06:30.142Z,15.17
2019-02-14T18:09:00.840Z,19.33
2019-02-14T18:11:31.259Z,13.87
2019-02-14T18:14:01.724Z,16.23
2019-02-14T18:16:32.144Z,12.43
2019-02-14T18:19:02.784Z,15.03
2019-02-14T18:21:33.412Z,15.93
2019-02-14T18:24:04.142Z,15.13
2019-02-14T18:26:34.482Z,12.97
2019-02-14T18:29:05.367Z,13.93
2019-02-14T18:31:35.906Z,11.50
2019-02-14T18:34:06.361Z,11.80
2019-02-14T18:36:36.788Z,12.20
2019-02-14T18:39:08.751Z,11.67
2019-02-14T18:41:39.294Z,11.50
2019-02-14T18:44:09.819Z,12.17
2019-02-14T18:46:40.283Z,12.03
2019-02-14T18:49:10.816Z,13.23
2019-02-14T18:51:41.400Z,12.37
2019-02-14T18:54:12.859Z,12.13
2019-02-14T18:56:43.558Z,14.97
2019-02-14T18:59:14.023Z,14.27
2019-02-14T19:01:44.747Z,15.77
2019-02-14T19:04:15.379Z,17.90
2019-02-14T19:06:45.807Z,19.10
2019-02-14T19:09:16.434Z,19.70
2019-02-14T19:11:47.171Z,20.13
2019-02-14T19:14:40.336Z,19.00
2019-02-14T19:17:10.728Z,19.50
2019-02-14T19:19:41.186Z,18.97
2019-02-14T19:22:11.614Z,17.67
2019-02-14T19:24:42.045Z,18.53
2019-02-14T19:27:12.464Z,17.93
2019-02-14T19:29:42.907Z,18.50
2019-02-14T19:32:14.594Z,16.47
2019-02-14T19:34:45.211Z,16.93
2019-02-14T19:37:15.821Z,16.20
2019-02-14T19:39:46.403Z,16.70
2019-02-14T19:42:16.883Z,17.87
2019-02-14T19:44:47.371Z,18.00
2019-02-14T19:47:17.929Z,15.20
2019-02-14T19:49:48.407Z,17.87
2019-02-14T19:52:18.895Z,16.97
2019-02-14T19:54:49.317Z,17.57
2019-02-14T19:57:19.741Z,17.30
2019-02-14T19:59:50.244Z,17.77
2019-02-14T20:02:20.739Z,19.10
2019-02-14T20:04:52.296Z,19.43
2019-02-14T20:07:22.881Z,18.20
2019-02-14T20:09:53.307Z,17.53
2019-02-14T20:12:23.797Z,18.97
2019-02-14T20:14:54.310Z,19.17
2019-02-14T20:17:24.822Z,17.43
2019-02-14T20:19:55.425Z,18.43
2019-02-14T20:22:25.851Z,17.70
2019-02-14T20:24:56.962Z,19.23
2019-02-14T20:27:27.429Z,18.70
2019-02-14T20:29:57.923Z,19.73
2019-02-14T20:32:28.450Z,17.73
2019-02-14T20:35:01.658Z,16.93
2019-02-14T20:37:31.351Z,16.43
2019-02-14T20:40:02.110Z,16.70
2019-02-14T20:42:33.088Z,18.03
2019-02-14T20:45:04.068Z,18.03
2019-02-14T20:47:35.345Z,20.90
2019-02-14T20:50:06.528Z,18.63
2019-02-14T20:52:37.460Z,18.67
2019-02-14T20:55:10.121Z,19.50
2019-02-14T20:57:40.553Z,18.57
2019-02-14T21:00:30.625Z,19.50
2019-02-14T21:03:01.382Z,16.87
2019-02-14T21:05:33.213Z,18.97
2019-02-14T21:08:03.875Z,18.47
2019-02-14T21:10:34.688Z,20.17
2019-02-14T21:13:05.314Z,20.87
2019-02-14T21:15:35.872Z,18.33
2019-02-14T21:18:06.672Z,17.97
2019-02-14T21:20:42.575Z,18.77
2019-02-14T21:23:13.646Z,18.63
2019-02-14T21:25:44.220Z,17.80
2019-02-14T21:28:14.695Z,19.07
2019-02-14T21:30:45.288Z,19.10
2019-02-14T21:33:15.749Z,19.87
2019-02-14T21:35:46.399Z,20.73
2019-02-14T21:38:16.969Z,19.80
2019-02-14T21:40:47.539Z,20.67
2019-02-14T21:43:18.203Z,18.43
2019-02-14T21:45:48.727Z,17.13
2019-02-14T21:48:19.903Z,18.10
2019-02-14T21:50:50.554Z,16.93
2019-02-14T21:53:21.109Z,16.80
2019-02-14T21:55:51.621Z,18.67
2019-02-14T21:58:22.244Z,20.50
2019-02-14T22:00:52.781Z,16.83
2019-02-14T22:03:23.484Z,16.00
2019-02-14T22:05:54.188Z,15.60
2019-02-14T22:08:24.776Z,16.37
2019-02-14T22:10:55.204Z,14.87
2019-02-14T22:13:50.559Z,16.53
2019-02-14T22:16:21.287Z,17.07
2019-02-14T22:18:51.763Z,16.57
2019-02-14T22:21:22.189Z,16.33
2019-02-14T22:23:52.819Z,18.70
2019-02-14T22:26:23.136Z,17.77
2019-02-14T22:28:53.674Z,19.57
2019-02-14T22:31:24.093Z,18.90
2019-02-14T22:33:54.635Z,17.37
2019-02-14T22:36:25.055Z,20.30
2019-02-14T22:38:55.466Z,20.27
2019-02-14T22:41:25.895Z,18.23
2019-02-14T22:43:57.378Z,19.90
2019-02-14T22:46:27.786Z,21.47
2019-02-14T22:48:58.242Z,20.87
2019-02-14T22:51:28.803Z,19.33
2019-02-14T22:54:00.180Z,17.70
2019-02-14T22:56:30.608Z,18.27
2019-02-14T22:59:01.035Z,16.33
2019-02-14T23:01:31.465Z,18.93
2019-02-14T23:04:01.888Z,20.20
2019-02-14T23:06:34.671Z,18.63
2019-02-14T23:09:06.534Z,19.03
2019-02-14T23:11:36.967Z,16.67
2019-02-14T23:14:07.487Z,16.50
2019-02-14T23:16:37.916Z,15.63
2019-02-14T23:19:08.392Z,14.77
2019-02-14T23:21:38.884Z,16.17
2019-02-14T23:24:09.400Z,13.10
2019-02-14T23:26:39.825Z,15.03
2019-02-14T23:29:10.252Z,14.67
2019-02-14T23:31:40.678Z,14.73
2019-02-14T23:34:11.113Z,14.40
2019-02-14T23:36:41.535Z,15.00
2019-02-14T23:39:12.337Z,14.17
2019-02-14T23:41:42.799Z,15.70
2019-02-14T23:44:14.251Z,13.17
2019-02-14T23:46:44.675Z,14.90
2019-02-14T23:49:15.130Z,13.80
2019-02-14T23:51:45.679Z,15.67
2019-02-14T23:54:16.164Z,13.70
2019-02-14T23:56:46.588Z,14.40
2019-02-14T23:59:17.188Z,17.30
